Time;durP1;ratioP1;P1;durP2;ratioP2;P2;SDS_P1;SDS_P2;PMS_P1;PMS_P2;Temp;Humidity;BMP_temperature;BMP_pressure;BME280_temperature;BME280_humidity;BME280_pressure;Samples;Min_cycle;Max_cycle;Signal;HPM_P1;HPM_P2
2022/06/19 00:01:51;;;;;;;4.90;4.60;;;20.60;92.20;;;;;;6300359;28;20687;-64
2022/06/19 00:04:56;;;;;;;4.77;4.37;;;20.60;92.40;;;;;;6282870;28;20227;-63
2022/06/19 00:08:00;;;;;;;5.60;4.70;;;20.50;92.50;;;;;;6298705;28;20551;-63
2022/06/19 00:11:05;;;;;;;7.10;4.80;;;20.40;92.70;;;;;;6283395;28;20226;-63
2022/06/19 00:14:09;;;;;;;5.10;4.70;;;20.40;92.90;;;;;;6297857;28;20231;-63
2022/06/19 00:17:13;;;;;;;4.90;4.50;;;20.30;93.10;;;;;;6280237;28;20567;-64
2022/06/19 00:20:19;;;;;;;5.30;4.90;;;20.30;93.00;;;;;;6296154;28;20661;-63
2022/06/19 00:23:22;;;;;;;5.00;4.60;;;20.30;93.20;;;;;;6285847;28;20231;-64
2022/06/19 00:26:25;;;;;;;4.57;4.27;;;20.30;93.30;;;;;;6295170;28;20246;-63
2022/06/19 00:29:28;;;;;;;4.40;4.10;;;20.30;93.40;;;;;;6286977;28;20227;-64
2022/06/19 00:32:31;;;;;;;4.70;4.40;;;20.20;93.40;;;;;;6294016;28;20250;-63
2022/06/19 00:35:36;;;;;;;5.73;5.23;;;20.20;93.50;;;;;;6277876;28;20696;-64
2022/06/19 00:38:40;;;;;;;4.40;4.07;;;20.20;93.50;;;;;;6288220;28;20227;-64
2022/06/19 00:41:44;;;;;;;4.80;4.30;;;20.20;93.50;;;;;;6291991;28;20242;-64
2022/06/19 00:44:47;;;;;;;5.00;4.60;;;20.20;93.60;;;;;;6277951;28;20228;-64
2022/06/19 00:47:51;;;;;;;5.60;5.20;;;20.10;93.60;;;;;;6289511;28;20652;-63
2022/06/19 00:50:59;;;;;;;5.03;4.63;;;20.10;93.80;;;;;;6291024;28;20227;-64
2022/06/19 00:54:03;;;;;;;4.27;4.07;;;20.00;94.00;;;;;;6277842;28;20231;-64
2022/06/19 00:57:08;;;;;;;4.50;4.20;;;20.00;94.00;;;;;;6291434;28;20230;-64
2022/06/19 01:00:14;;;;;;;4.93;4.30;;;20.00;94.10;;;;;;6288001;28;20227;-64
2022/06/19 01:03:21;;;;;;;5.03;4.50;;;20.00;94.30;;;;;;6277357;28;20236;-64
2022/06/19 01:06:27;;;;;;;4.80;4.13;;;20.00;94.40;;;;;;6293452;28;20223;-63
2022/06/19 01:09:30;;;;;;;4.93;4.63;;;20.00;94.30;;;;;;6285405;28;20239;-64
2022/06/19 01:12:33;;;;;;;4.33;4.00;;;19.90;94.20;;;;;;6277132;28;20657;-63
2022/06/19 01:15:39;;;;;;;4.53;4.13;;;19.80;94.20;;;;;;6295188;28;20238;-63
2022/06/19 01:18:43;;;;;;;4.50;4.10;;;19.80;94.60;;;;;;6283436;28;20224;-64
2022/06/19 01:21:51;;;;;;;4.87;4.57;;;19.80;94.70;;;;;;6295952;28;20227;-64
2022/06/19 01:25:14;;;;;;;4.40;4.10;;;19.70;94.60;;;;;;6277002;28;20574;-64
2022/06/19 01:31:50;;;;;;;4.80;4.43;;;19.60;94.90;;;;;;6298988;28;20556;-65
2022/06/19 01:34:54;;;;;;;4.53;3.73;;;19.50;94.90;;;;;;6280327;28;20227;-63
2022/06/19 01:37:58;;;;;;;4.30;4.10;;;19.50;95.20;;;;;;6297493;28;20667;-64
2022/06/19 01:41:09;;;;;;;4.37;4.07;;;19.50;95.40;;;;;;6281232;28;20532;-63
2022/06/19 01:44:12;;;;;;;4.40;4.00;;;19.50;95.30;;;;;;6295355;28;20236;-64
2022/06/19 01:47:17;;;;;;;4.63;4.23;;;19.40;95.50;;;;;;6283065;28;20675;-64
2022/06/19 01:50:24;;;;;;;4.50;4.10;;;19.40;95.50;;;;;;6282027;28;20662;-64
2022/06/19 01:53:35;;;;;;;6.80;4.33;;;19.30;95.50;;;;;;6270386;28;20224;-64
2022/06/19 01:56:39;;;;;;;6.37;4.03;;;19.30;95.60;;;;;;6268569;28;20230;-63
2022/06/19 01:59:45;;;;;;;4.27;4.07;;;19.20;95.80;;;;;;6281818;28;20569;-63
2022/06/19 02:02:54;;;;;;;4.43;4.10;;;19.10;95.90;;;;;;6275884;28;20236;-64
2022/06/19 02:05:58;;;;;;;5.10;4.60;;;19.00;96.20;;;;;;6276137;28;20314;-64
2022/06/19 02:09:02;;;;;;;5.30;3.90;;;18.90;96.50;;;;;;6288976;28;20233;-64
2022/06/19 02:12:08;;;;;;;5.60;4.80;;;18.90;96.50;;;;;;6287034;28;20556;-64
2022/06/19 02:15:13;;;;;;;5.13;4.63;;;19.00;96.60;;;;;;6275714;28;20232;-64
2022/06/19 02:18:21;;;;;;;4.60;4.20;;;18.90;96.50;;;;;;6290881;28;20227;-64
2022/06/19 02:21:37;;;;;;;4.30;4.00;;;18.90;96.80;;;;;;6283936;28;20224;-64
2022/06/19 02:24:41;;;;;;;5.10;4.70;;;18.80;97.00;;;;;;6293603;28;20227;-64
2022/06/19 02:27:46;;;;;;;4.63;4.23;;;18.60;97.30;;;;;;6272276;28;20243;-63
2022/06/19 02:30:50;;;;;;;5.13;4.73;;;18.70;97.50;;;;;;6294710;28;20227;-64
2022/06/19 02:33:56;;;;;;;3.90;3.60;;;18.70;97.50;;;;;;6280114;28;20251;-64
2022/06/19 02:37:01;;;;;;;4.77;4.37;;;18.70;97.40;;;;;;6296147;28;20474;-64
2022/06/19 02:40:11;;;;;;;5.00;4.60;;;18.70;97.40;;;;;;6278673;28;20231;-63
2022/06/19 02:43:21;;;;;;;4.60;4.20;;;18.70;97.40;;;;;;6274840;28;20224;-63
2022/06/19 02:46:24;;;;;;;3.90;3.60;;;18.70;97.50;;;;;;6299728;28;20488;-64
2022/06/19 02:49:27;;;;;;;4.13;3.73;;;18.70;97.50;;;;;;6275060;28;20687;-65
2022/06/19 02:52:31;;;;;;;5.27;3.80;;;18.70;97.50;;;;;;6299466;28;20229;-65
2022/06/19 02:55:34;;;;;;;4.20;3.90;;;18.60;97.50;;;;;;6275666;28;20203;-64
2022/06/19 02:58:39;;;;;;;4.50;4.10;;;18.60;97.70;;;;;;6299803;28;20448;-65
2022/06/19 03:01:42;;;;;;;4.00;3.70;;;18.70;97.80;;;;;;6297262;28;20449;-65
2022/06/19 03:04:49;;;;;;;4.50;4.17;;;18.70;97.80;;;;;;6274946;28;20226;-65
2022/06/19 03:07:52;;;;;;;5.50;5.00;;;18.70;97.80;;;;;;6276996;28;20461;-65
2022/06/19 03:10:55;;;;;;;4.43;4.13;;;18.70;97.80;;;;;;6295778;28;20234;-65
2022/06/19 03:14:00;;;;;;;4.20;3.90;;;18.70;97.90;;;;;;6278979;28;20469;-65
2022/06/19 03:17:03;;;;;;;4.43;4.13;;;18.60;97.90;;;;;;6295442;28;20744;-65
2022/06/19 03:20:09;;;;;;;7.70;5.40;;;18.50;97.90;;;;;;6274202;28;20564;-64
2022/06/19 03:23:12;;;;;;;4.43;4.13;;;18.50;98.00;;;;;;6280552;28;20480;-64
2022/06/19 03:26:15;;;;;;;4.80;4.40;;;18.50;98.10;;;;;;6293065;28;20466;-65
2022/06/19 03:29:19;;;;;;;5.97;5.30;;;18.60;98.20;;;;;;6277125;28;20580;-64
2022/06/19 03:32:23;;;;;;;4.43;4.10;;;18.50;98.10;;;;;;6291344;28;20489;-64
2022/06/19 03:35:26;;;;;;;4.80;4.47;;;18.60;98.10;;;;;;6282450;28;20469;-65
2022/06/19 03:38:29;;;;;;;4.83;4.43;;;18.50;98.10;;;;;;6290800;28;20560;-65
2022/06/19 03:41:32;;;;;;;4.50;4.10;;;18.50;98.20;;;;;;6283016;28;20235;-65
2022/06/19 03:44:36;;;;;;;4.67;4.10;;;18.60;98.20;;;;;;6289857;28;20470;-65
2022/06/19 03:47:40;;;;;;;4.67;4.27;;;18.60;98.30;;;;;;6274292;28;20228;-65
2022/06/19 03:50:43;;;;;;;4.07;3.87;;;18.60;98.30;;;;;;6284760;28;20227;-65
2022/06/19 03:53:46;;;;;;;5.00;4.60;;;18.60;98.30;;;;;;6288072;28;20242;-65
2022/06/19 03:56:49;;;;;;;5.00;4.60;;;18.70;98.30;;;;;;6285730;28;20469;-65
2022/06/19 03:59:54;;;;;;;5.10;4.70;;;18.70;98.20;;;;;;6287275;28;20459;-65
2022/06/19 04:02:57;;;;;;;4.93;4.20;;;18.70;98.30;;;;;;6274159;28;20649;-65
2022/06/19 04:06:01;;;;;;;4.83;4.53;;;18.70;98.30;;;;;;6286626;28;20797;-65
2022/06/19 04:09:07;;;;;;;4.73;4.43;;;18.80;98.20;;;;;;6285828;28;20227;-65
2022/06/19 04:12:12;;;;;;;4.07;3.87;;;18.80;98.20;;;;;;6273820;28;20603;-65
2022/06/19 04:15:17;;;;;;;7.00;4.70;;;18.80;98.00;;;;;;6289275;28;20679;-65
2022/06/19 04:18:20;;;;;;;5.83;4.47;;;18.90;98.00;;;;;;6284419;28;20477;-65
2022/06/19 04:21:27;;;;;;;4.93;4.43;;;19.00;98.00;;;;;;6294554;28;20473;-65
2022/06/19 04:24:30;;;;;;;4.90;4.50;;;19.10;97.90;;;;;;6286418;28;20231;-65
2022/06/19 04:27:34;;;;;;;5.33;4.87;;;19.20;97.90;;;;;;6295700;28;20227;-65
2022/06/19 04:30:40;;;;;;;4.70;4.30;;;19.30;97.90;;;;;;6285517;28;20238;-65
2022/06/19 04:33:43;;;;;;;4.77;4.47;;;19.40;97.70;;;;;;6286736;28;20246;-65
2022/06/19 04:36:46;;;;;;;4.80;4.40;;;19.50;97.60;;;;;;6284018;28;20238;-65
2022/06/19 04:39:49;;;;;;;5.27;4.93;;;19.60;97.50;;;;;;6297243;28;20226;-65
2022/06/19 04:42:52;;;;;;;4.63;4.33;;;19.70;97.30;;;;;;6282850;28;20585;-65
2022/06/19 04:46:04;;;;;;;4.87;4.53;;;19.80;97.00;;;;;;6298108;28;20683;-65
2022/06/19 04:49:07;;;;;;;5.30;4.80;;;20.00;96.90;;;;;;6280797;28;20236;-65
2022/06/19 04:52:13;;;;;;;5.20;4.80;;;20.10;96.70;;;;;;6277683;28;20232;-65
2022/06/19 04:55:17;;;;;;;5.70;4.43;;;20.30;96.50;;;;;;6300914;28;20699;-65
2022/06/19 04:58:22;;;;;;;5.20;4.80;;;20.40;96.30;;;;;;6278706;28;20228;-65
2022/06/19 05:04:33;;;;;;;5.80;5.30;;;20.70;95.80;;;;;;6178067;28;20233;-64
2022/06/19 05:07:37;;;;;;;5.93;5.53;;;20.90;95.60;;;;;;6180932;28;20206;-64
2022/06/19 05:10:41;;;;;;;6.47;5.87;;;21.00;95.40;;;;;;6203992;28;20202;-64
2022/06/19 05:13:45;;;;;;;6.20;5.70;;;21.00;95.30;;;;;;6203100;28;20655;-65
2022/06/19 05:16:50;;;;;;;6.10;5.60;;;21.10;95.10;;;;;;6203706;28;20202;-65
2022/06/19 05:19:53;;;;;;;6.53;6.03;;;21.20;94.90;;;;;;6203383;28;20233;-65
2022/06/19 05:22:56;;;;;;;8.80;6.80;;;21.40;94.90;;;;;;6203801;28;20233;-65
2022/06/19 05:26:01;;;;;;;6.30;5.70;;;21.50;95.10;;;;;;6203542;28;20229;-65
2022/06/19 05:29:05;;;;;;;7.80;6.93;;;21.60;94.50;;;;;;6203732;28;20231;-65
2022/06/19 05:32:10;;;;;;;7.50;6.43;;;21.70;94.50;;;;;;6197899;28;20244;-65
2022/06/19 05:35:13;;;;;;;6.50;5.90;;;21.90;94.30;;;;;;6203028;28;20246;-65
2022/06/19 05:38:16;;;;;;;7.67;6.97;;;22.00;94.40;;;;;;6202786;28;20249;-65
2022/06/19 05:41:19;;;;;;;7.67;6.97;;;22.10;93.60;;;;;;6202997;28;20582;-65
2022/06/19 05:44:22;;;;;;;7.57;6.97;;;22.30;93.20;;;;;;6202490;28;20251;-65
2022/06/19 05:47:27;;;;;;;7.10;6.50;;;22.40;93.10;;;;;;6202602;28;20236;-65
2022/06/19 05:50:30;;;;;;;7.40;6.80;;;22.50;93.30;;;;;;6202832;28;20230;-65
2022/06/19 05:53:37;;;;;;;6.83;6.13;;;22.60;92.80;;;;;;6202608;28;20230;-65
2022/06/19 05:56:40;;;;;;;7.87;7.07;;;22.80;92.70;;;;;;6202465;28;20608;-65
2022/06/19 05:59:43;;;;;;;7.27;6.67;;;23.00;92.40;;;;;;6202628;28;20233;-65
2022/06/19 06:02:48;;;;;;;7.87;7.37;;;23.30;92.60;;;;;;6201893;28;20245;-65
2022/06/19 06:05:51;;;;;;;7.73;7.03;;;23.50;92.50;;;;;;6202139;28;20230;-65
2022/06/19 06:08:55;;;;;;;8.13;7.43;;;23.70;92.20;;;;;;6202060;28;20229;-66
2022/06/19 06:11:58;;;;;;;8.70;7.00;;;23.90;92.00;;;;;;6201634;28;20582;-65
2022/06/19 06:15:01;;;;;;;7.63;7.03;;;24.20;91.50;;;;;;6201881;28;20229;-65
2022/06/19 06:18:06;;;;;;;7.33;6.57;;;24.40;91.10;;;;;;6201986;28;20230;-65
2022/06/19 06:21:13;;;;;;;7.13;6.63;;;24.80;90.80;;;;;;6202286;28;20521;-65
2022/06/19 06:24:16;;;;;;;7.50;6.90;;;24.90;90.20;;;;;;6201578;28;20234;-65
2022/06/19 06:27:20;;;;;;;7.00;6.50;;;25.10;89.60;;;;;;6188638;28;20232;-65
2022/06/19 06:30:24;;;;;;;7.60;7.00;;;25.20;88.20;;;;;;6190557;28;20365;-65
2022/06/19 06:33:40;;;;;;;6.53;6.03;;;25.50;88.50;;;;;;6183394;28;20682;-65
2022/06/19 06:36:44;;;;;;;7.27;6.50;;;26.10;86.70;;;;;;6191795;28;20248;-65
2022/06/19 06:39:47;;;;;;;7.07;6.57;;;26.80;84.60;;;;;;6200787;28;20221;-65
2022/06/19 06:42:51;;;;;;;7.30;6.60;;;27.40;81.10;;;;;;6178324;28;20234;-65
2022/06/19 06:45:54;;;;;;;7.37;6.47;;;28.30;76.90;;;;;;6177227;28;20237;-65
2022/06/19 06:49:02;;;;;;;6.70;6.20;;;28.70;74.00;;;;;;6177083;28;20682;-65
2022/06/19 06:52:08;;;;;;;6.30;5.83;;;29.10;72.10;;;;;;6177454;28;20230;-65
2022/06/19 06:55:12;;;;;;;6.90;5.53;;;30.10;68.80;;;;;;6176872;28;20240;-65
2022/06/19 06:58:15;;;;;;;6.00;5.50;;;30.50;64.30;;;;;;6177020;28;20226;-65
2022/06/19 07:01:20;;;;;;;6.22;5.75;;;31.20;61.90;;;;;;6177266;28;20248;-65
2022/06/19 07:04:25;;;;;;;7.05;6.20;;;31.90;60.40;;;;;;6176712;28;20244;-65
2022/06/19 07:07:29;;;;;;;5.95;5.35;;;32.20;59.00;;;;;;6177154;28;20253;-65
2022/06/19 07:10:32;;;;;;;5.85;5.45;;;32.40;56.10;;;;;;6177420;28;20224;-65
2022/06/19 07:13:38;;;;;;;5.40;4.97;;;33.00;54.50;;;;;;6218002;28;20231;-66
2022/06/19 07:16:41;;;;;;;5.28;4.78;;;33.40;53.20;;;;;;6222042;28;20246;-65
2022/06/19 07:19:46;;;;;;;5.57;5.07;;;33.60;51.60;;;;;;6226054;28;20223;-65
2022/06/19 07:22:49;;;;;;;5.57;5.07;;;34.50;50.60;;;;;;6225369;28;20244;-66
2022/06/19 07:25:52;;;;;;;5.43;5.03;;;34.30;50.10;;;;;;6225275;28;20612;-66
2022/06/19 07:28:56;;;;;;;5.57;5.18;;;34.90;48.90;;;;;;6225102;28;20258;-65
2022/06/19 07:32:08;;;;;;;5.50;5.03;;;35.00;48.80;;;;;;6225344;28;20243;-65
2022/06/19 07:35:13;;;;;;;5.63;5.15;;;35.90;47.60;;;;;;6225387;28;20243;-65
2022/06/19 07:38:17;;;;;;;5.78;5.38;;;36.10;46.00;;;;;;6225450;28;20680;-66
2022/06/19 07:41:20;;;;;;;5.40;5.00;;;35.00;46.30;;;;;;6220752;28;20235;-66
2022/06/19 07:44:23;;;;;;;6.10;4.68;;;34.80;46.20;;;;;;6224958;28;20582;-65
2022/06/19 07:50:49;;;;;;;5.30;4.80;;;34.80;46.40;;;;;;6225174;28;20228;-66
2022/06/19 07:53:52;;;;;;;4.97;4.68;;;34.50;45.50;;;;;;6226130;28;20571;-66
2022/06/19 07:56:55;;;;;;;5.28;4.88;;;33.70;46.30;;;;;;6229721;28;20243;-66
2022/06/19 08:00:05;;;;;;;5.70;4.97;;;32.90;47.10;;;;;;6229897;28;20229;-66
2022/06/19 08:03:09;;;;;;;5.78;5.38;;;32.40;48.80;;;;;;6229752;28;20240;-66
2022/06/19 08:06:14;;;;;;;5.43;4.97;;;32.00;50.00;;;;;;6229637;28;20244;-66
2022/06/19 08:09:17;;;;;;;5.03;4.55;;;31.70;50.90;;;;;;6229512;28;20251;-66
2022/06/19 08:12:22;;;;;;;5.80;5.40;;;31.40;51.40;;;;;;6230008;28;20251;-67
2022/06/19 08:15:26;;;;;;;5.45;5.03;;;31.20;51.40;;;;;;6229562;28;20232;-67
2022/06/19 08:18:29;;;;;;;4.70;4.38;;;31.10;52.40;;;;;;6229381;28;20665;-67
2022/06/19 08:21:34;;;;;;;12.48;5.47;;;30.90;52.30;;;;;;6229401;28;20229;-66
2022/06/19 08:24:37;;;;;;;4.72;4.43;;;30.60;52.50;;;;;;6229034;28;20577;-69
2022/06/19 08:27:42;;;;;;;4.68;4.38;;;30.40;53.50;;;;;;6228912;28;20912;-66
2022/06/19 08:30:45;;;;;;;5.07;4.53;;;30.30;52.90;;;;;;6229053;28;20235;-67
2022/06/19 08:33:48;;;;;;;4.73;4.40;;;30.00;53.90;;;;;;6228545;28;20675;-67
2022/06/19 08:36:53;;;;;;;5.33;4.90;;;29.80;55.50;;;;;;6229172;28;20240;-66
2022/06/19 08:39:56;;;;;;;6.00;5.10;;;29.80;56.10;;;;;;6230442;28;20856;-67
2022/06/19 08:43:09;;;;;;;5.33;4.83;;;29.90;56.90;;;;;;6245362;28;20224;-67
2022/06/19 08:46:24;;;;;;;5.37;5.00;;;29.50;57.60;;;;;;6194996;28;20243;-67
2022/06/19 08:49:39;;;;;;;6.10;5.60;;;29.40;58.20;;;;;;6238270;28;20306;-67
2022/06/19 08:52:59;;;;;;;5.77;5.37;;;29.50;58.70;;;;;;6232762;28;20231;-67
2022/06/19 08:56:10;;;;;;;6.60;6.00;;;29.60;58.90;;;;;;6217066;28;20225;-67
2022/06/19 08:59:31;;;;;;;5.40;5.10;;;29.60;59.00;;;;;;6223388;28;20236;-67
2022/06/19 09:02:43;;;;;;;6.10;5.60;;;29.70;59.50;;;;;;6215877;28;20236;-67
2022/06/19 09:05:53;;;;;;;5.83;5.37;;;29.80;60.30;;;;;;6214851;28;20236;-67
2022/06/19 09:09:25;;;;;;;6.40;5.97;;;29.40;59.10;;;;;;6211108;28;20225;-67
2022/06/19 09:12:44;;;;;;;5.93;5.53;;;29.20;60.50;;;;;;6216880;28;20248;-67
2022/06/19 09:15:56;;;;;;;5.77;5.37;;;29.00;61.60;;;;;;6216189;28;20673;-67
2022/06/19 09:19:11;;;;;;;6.93;6.33;;;28.70;62.00;;;;;;6211421;28;20221;-66
2022/06/19 09:22:37;;;;;;;6.13;5.73;;;28.90;61.90;;;;;;6211384;28;20235;-67
2022/06/19 09:25:49;;;;;;;6.30;5.70;;;29.10;61.30;;;;;;6200554;28;20272;-67
2022/06/19 09:28:57;;;;;;;6.30;5.80;;;29.30;60.40;;;;;;6225641;28;20221;-67
2022/06/19 09:32:07;;;;;;;6.20;5.70;;;29.30;59.60;;;;;;6227132;28;20857;-65
2022/06/19 09:35:13;;;;;;;5.90;5.50;;;29.20;59.80;;;;;;6210422;28;20720;-65
2022/06/19 09:38:22;;;;;;;6.10;5.67;;;29.30;61.70;;;;;;6212890;28;20244;-65
2022/06/19 09:41:32;;;;;;;6.77;6.17;;;29.20;60.30;;;;;;6204823;28;20217;-65
2022/06/19 09:44:41;;;;;;;7.20;6.60;;;29.10;62.00;;;;;;6203577;28;20364;-66
2022/06/19 09:47:49;;;;;;;6.13;5.53;;;28.90;62.30;;;;;;6207655;28;20228;-66
2022/06/19 09:51:16;;;;;;;6.40;5.93;;;29.10;61.80;;;;;;6202757;28;20232;-66
2022/06/19 09:54:24;;;;;;;5.77;5.20;;;29.20;61.10;;;;;;6202462;28;20229;-66
2022/06/19 09:57:32;;;;;;;6.17;5.07;;;29.30;60.80;;;;;;6202780;28;20236;-66
2022/06/19 10:00:41;;;;;;;6.20;5.63;;;29.50;60.40;;;;;;6202771;28;20229;-66
2022/06/19 10:04:04;;;;;;;4.77;4.40;;;29.80;60.30;;;;;;6202084;28;20376;-66
2022/06/19 10:07:16;;;;;;;5.80;5.30;;;29.90;60.00;;;;;;6202713;28;20540;-67
2022/06/19 10:10:33;;;;;;;6.13;5.63;;;29.70;59.80;;;;;;6207349;28;20225;-67
2022/06/19 10:13:49;;;;;;;7.10;6.50;;;29.70;58.70;;;;;;6215192;28;20225;-66
2022/06/19 10:16:56;;;;;;;5.67;5.17;;;29.80;58.80;;;;;;6215526;28;20244;-66
2022/06/19 10:20:07;;;;;;;6.33;5.63;;;29.70;58.70;;;;;;6212909;28;20637;-67
2022/06/19 10:23:19;;;;;;;6.03;5.43;;;29.90;59.00;;;;;;6224316;28;20237;-67
2022/06/19 10:26:37;;;;;;;5.93;5.43;;;29.90;58.70;;;;;;6203992;28;20229;-66
2022/06/19 10:29:52;;;;;;;5.03;4.50;;;30.00;58.80;;;;;;6221817;28;20670;-66
2022/06/19 10:33:08;;;;;;;6.43;5.83;;;29.90;58.40;;;;;;6211908;28;20681;-66
2022/06/19 10:36:16;;;;;;;5.50;5.10;;;29.70;59.60;;;;;;6202213;28;20604;-67
2022/06/19 10:39:32;;;;;;;5.43;4.90;;;29.50;60.20;;;;;;6200857;28;20277;-66
2022/06/19 10:42:45;;;;;;;5.17;4.77;;;29.60;59.40;;;;;;6201267;28;20237;-65
2022/06/19 10:45:53;;;;;;;5.40;5.00;;;29.60;59.40;;;;;;6210848;28;20221;-65
2022/06/19 10:49:05;;;;;;;5.20;4.70;;;29.40;59.30;;;;;;6225178;28;20575;-66
2022/06/19 10:52:16;;;;;;;5.33;4.83;;;29.60;60.60;;;;;;6202258;28;20670;-67
2022/06/19 10:55:31;;;;;;;8.30;5.40;;;29.80;59.60;;;;;;6200509;28;20238;-67
2022/06/19 10:58:35;;;;;;;5.17;4.83;;;29.80;59.20;;;;;;6201024;28;20232;-67
2022/06/19 11:05:13;;;;;;;5.00;4.50;;;30.00;57.80;;;;;;6200816;28;20854;-66
2022/06/19 11:08:18;;;;;;;5.27;4.57;;;30.10;56.90;;;;;;6200848;28;20573;-66
2022/06/19 11:11:24;;;;;;;7.50;4.77;;;30.30;57.30;;;;;;6202956;28;20793;-65
2022/06/19 11:14:33;;;;;;;4.80;4.30;;;30.30;56.50;;;;;;6225412;28;20370;-66
2022/06/19 11:17:39;;;;;;;4.93;4.40;;;30.20;55.80;;;;;;6222175;28;20229;-67
2022/06/19 11:20:56;;;;;;;4.67;4.10;;;30.20;55.40;;;;;;6225181;28;20239;-67
2022/06/19 11:24:02;;;;;;;4.60;4.20;;;30.00;55.50;;;;;;6225230;28;20243;-67
2022/06/19 11:27:05;;;;;;;4.73;4.43;;;30.30;55.80;;;;;;6222408;28;20237;-67
2022/06/19 11:30:09;;;;;;;5.40;4.90;;;30.50;55.60;;;;;;6211167;28;20236;-66
2022/06/19 11:33:16;;;;;;;4.35;4.05;;;30.50;55.50;;;;;;6205830;28;20303;-65
2022/06/19 11:36:31;;;;;;;6.40;4.50;;;30.40;55.10;;;;;;6205668;28;20233;-66
2022/06/19 11:39:37;;;;;;;5.40;4.90;;;30.40;54.80;;;;;;6211431;28;20225;-66
2022/06/19 11:42:48;;;;;;;5.27;4.70;;;30.40;55.40;;;;;;6228540;28;20239;-66
2022/06/19 11:46:00;;;;;;;6.67;4.77;;;30.40;55.40;;;;;;6229371;28;20229;-66
2022/06/19 11:49:26;;;;;;;4.83;4.40;;;30.60;55.90;;;;;;6205455;28;20229;-65
2022/06/19 11:52:39;;;;;;;5.80;4.70;;;30.70;56.00;;;;;;6216934;28;20228;-65
2022/06/19 11:55:44;;;;;;;5.10;4.70;;;30.80;55.60;;;;;;6229437;28;20654;-66
2022/06/19 11:58:54;;;;;;;5.10;4.70;;;30.60;54.90;;;;;;6229436;28;20203;-66
2022/06/19 12:01:57;;;;;;;5.60;5.10;;;30.10;55.80;;;;;;6229425;28;20233;-66
2022/06/19 12:05:04;;;;;;;5.97;5.20;;;30.20;56.80;;;;;;6224043;28;20224;-66
2022/06/19 12:08:18;;;;;;;5.93;4.50;;;30.40;56.40;;;;;;6220924;28;20562;-67
2022/06/19 12:11:37;;;;;;;4.72;4.43;;;30.50;55.90;;;;;;6229149;28;20228;-65
2022/06/19 12:14:55;;;;;;;4.90;4.60;;;30.50;56.20;;;;;;6228704;28;20247;-66
2022/06/19 12:18:00;;;;;;;5.78;4.60;;;30.50;56.00;;;;;;6229308;28;20239;-66
2022/06/19 12:21:22;;;;;;;5.47;4.97;;;30.60;56.60;;;;;;6228328;28;20235;-67
2022/06/19 12:24:34;;;;;;;4.88;4.50;;;30.50;55.80;;;;;;6228719;28;20693;-67
2022/06/19 12:27:43;;;;;;;5.68;4.30;;;30.60;56.20;;;;;;6229095;28;20229;-65
2022/06/19 12:30:51;;;;;;;5.70;5.18;;;30.70;56.10;;;;;;6229236;28;20228;-66
2022/06/19 12:34:06;;;;;;;6.50;5.00;;;30.50;56.20;;;;;;6228695;28;20244;-66
2022/06/19 12:37:18;;;;;;;5.10;4.60;;;30.20;56.80;;;;;;6228873;28;20245;-65
2022/06/19 12:40:26;;;;;;;7.00;6.40;;;30.40;56.50;;;;;;6228396;28;20240;-66
2022/06/19 12:43:40;;;;;;;5.10;4.70;;;30.20;56.70;;;;;;6228453;28;20239;-65
2022/06/19 12:46:50;;;;;;;5.70;5.20;;;30.20;56.60;;;;;;6228809;28;20216;-66
2022/06/19 12:50:29;;;;;;;5.30;4.80;;;30.10;57.10;;;;;;6228896;28;20316;-66
2022/06/19 12:54:06;;;;;;;5.63;5.00;;;30.30;56.80;;;;;;6219012;28;20247;-66
2022/06/19 12:57:24;;;;;;;5.63;5.13;;;30.10;57.20;;;;;;6203434;28;20236;-66
2022/06/19 13:00:38;;;;;;;5.47;5.00;;;30.10;57.60;;;;;;6228283;28;20228;-67
2022/06/19 13:04:03;;;;;;;5.18;4.65;;;30.30;57.20;;;;;;6227551;28;20244;-64
2022/06/19 13:07:18;;;;;;;5.83;5.27;;;30.30;57.90;;;;;;6222726;28;20240;-65
2022/06/19 13:10:42;;;;;;;5.63;5.13;;;30.40;57.80;;;;;;6203197;28;20704;-64
2022/06/19 13:14:26;;;;;;;5.90;5.37;;;30.30;58.10;;;;;;6220661;28;20316;-65
2022/06/19 13:17:35;;;;;;;5.83;5.43;;;30.10;58.00;;;;;;6228285;28;20232;-65
2022/06/19 13:20:56;;;;;;;6.10;5.50;;;30.10;58.60;;;;;;6227921;28;20233;-65
2022/06/19 13:24:12;;;;;;;5.95;5.55;;;30.20;58.70;;;;;;6227567;28;20229;-64
2022/06/19 13:27:32;;;;;;;6.30;5.27;;;30.40;57.80;;;;;;6227854;28;20228;-65
2022/06/19 13:30:43;;;;;;;5.13;4.65;;;30.40;58.00;;;;;;6227440;28;20225;-65
2022/06/19 13:34:05;;;;;;;6.57;5.70;;;30.40;57.50;;;;;;6227644;28;20233;-65
2022/06/19 13:37:17;;;;;;;5.43;5.05;;;30.40;57.20;;;;;;6227219;28;20228;-65
2022/06/19 13:40:31;;;;;;;5.40;4.97;;;30.50;57.40;;;;;;6227167;28;20228;-65
2022/06/19 13:43:49;;;;;;;6.13;5.25;;;30.60;57.40;;;;;;6227843;28;20641;-66
2022/06/19 13:46:57;;;;;;;5.47;5.05;;;30.80;56.30;;;;;;6227751;28;20602;-66
2022/06/19 13:50:06;;;;;;;5.72;5.20;;;30.70;56.50;;;;;;6226468;28;20561;-65
2022/06/19 13:53:19;;;;;;;5.43;4.93;;;30.60;56.20;;;;;;6225763;28;20577;-66
2022/06/19 13:56:29;;;;;;;5.72;5.22;;;30.40;56.30;;;;;;6227216;28;20225;-64
2022/06/19 14:00:04;;;;;;;5.83;4.83;;;30.30;56.20;;;;;;6222025;28;20546;-64
2022/06/19 14:04:45;;;;;;;5.43;4.93;;;30.20;56.80;;;;;;6226485;28;20232;-66
2022/06/19 14:07:01;;;;;;;5.67;5.00;;;30.20;56.30;;;;;;6225902;28;20301;-66
2022/06/19 14:10:16;;;;;;;6.20;5.03;;;29.90;57.10;;;;;;6226025;28;20233;-66
2022/06/19 14:13:31;;;;;;;5.70;5.20;;;30.00;56.90;;;;;;6225947;28;20232;-65
2022/06/19 14:16:43;;;;;;;5.93;5.53;;;30.00;57.50;;;;;;6225602;28;20527;-66
2022/06/19 14:19:51;;;;;;;6.20;5.70;;;30.00;57.10;;;;;;6226677;28;20208;-66
2022/06/19 14:23:01;;;;;;;6.63;5.50;;;30.20;56.90;;;;;;6226373;28;20240;-63
2022/06/19 14:26:14;;;;;;;5.70;5.20;;;30.20;56.30;;;;;;6226338;28;20224;-63
2022/06/19 14:29:35;;;;;;;6.97;4.75;;;30.10;56.80;;;;;;6225766;28;20366;-64
2022/06/19 14:32:52;;;;;;;5.57;5.10;;;30.00;56.60;;;;;;6225990;28;20229;-64
2022/06/19 14:36:06;;;;;;;6.23;5.60;;;30.10;56.70;;;;;;6226063;28;20242;-64
2022/06/19 14:39:37;;;;;;;5.83;5.40;;;30.20;56.80;;;;;;6225633;28;20225;-64
2022/06/19 14:42:50;;;;;;;6.77;5.30;;;30.40;56.60;;;;;;6225963;28;20236;-64
2022/06/19 14:46:08;;;;;;;8.65;6.00;;;30.40;55.80;;;;;;6225680;28;20559;-63
2022/06/19 14:49:40;;;;;;;5.57;5.18;;;30.40;56.10;;;;;;6226698;28;20247;-64
2022/06/19 14:53:03;;;;;;;6.80;5.68;;;30.50;56.70;;;;;;6226348;28;20265;-63
2022/06/19 14:56:46;;;;;;;6.07;5.67;;;30.60;56.50;;;;;;6226187;28;20224;-63
2022/06/19 15:00:01;;;;;;;6.00;5.50;;;30.60;56.30;;;;;;6196707;28;20244;-63
2022/06/19 15:03:22;;;;;;;6.60;6.00;;;30.50;56.20;;;;;;6220610;28;20236;-63
2022/06/19 15:06:41;;;;;;;6.10;5.60;;;30.30;56.60;;;;;;6225393;28;20232;-64
2022/06/19 15:09:47;;;;;;;6.53;5.80;;;30.10;57.10;;;;;;6225440;28;20228;-64
2022/06/19 15:13:04;;;;;;;5.68;5.28;;;30.20;57.10;;;;;;6224639;28;20687;-65
2022/06/19 15:16:20;;;;;;;7.00;6.40;;;30.40;56.90;;;;;;6224693;28;20559;-65
2022/06/19 15:19:38;;;;;;;5.82;5.40;;;30.40;56.50;;;;;;6224771;28;20225;-64
2022/06/19 15:22:42;;;;;;;6.38;5.80;;;30.50;56.30;;;;;;6225146;28;20229;-63
2022/06/19 15:25:47;;;;;;;6.80;6.20;;;30.70;56.20;;;;;;6225244;28;20201;-64
2022/06/19 15:29:03;;;;;;;5.63;5.22;;;30.80;55.90;;;;;;6225213;28;20204;-64
2022/06/19 15:32:57;;;;;;;6.80;6.05;;;30.60;55.50;;;;;;6224795;28;20240;-64
2022/06/19 15:36:04;;;;;;;6.97;6.30;;;30.10;56.40;;;;;;6224870;28;20546;-66
2022/06/19 15:39:33;;;;;;;6.23;5.77;;;30.20;56.90;;;;;;6225113;28;20240;-64
2022/06/19 15:43:35;;;;;;;7.57;6.88;;;30.30;56.40;;;;;;6224530;28;20237;-64
2022/06/19 15:47:02;;;;;;;9.35;8.00;;;30.40;56.30;;;;;;6224560;28;20230;-65
2022/06/19 15:50:08;;;;;;;5.90;5.47;;;30.50;56.70;;;;;;6225429;28;20231;-65
2022/06/19 15:53:17;;;;;;;6.30;5.90;;;30.50;56.00;;;;;;6224754;28;20232;-66
2022/06/19 15:56:26;;;;;;;8.45;7.28;;;30.60;55.90;;;;;;6224770;28;20229;-66
2022/06/19 15:59:33;;;;;;;6.03;5.43;;;30.60;55.90;;;;;;6224814;28;20241;-67
2022/06/19 16:02:36;;;;;;;7.55;6.88;;;30.50;55.70;;;;;;6224315;28;20232;-66
2022/06/19 16:05:40;;;;;;;6.30;5.78;;;30.40;56.10;;;;;;6215486;28;20239;-65
2022/06/19 16:08:49;;;;;;;5.93;5.53;;;30.50;56.40;;;;;;6224430;28;20234;-65
2022/06/19 16:11:57;;;;;;;6.47;6.03;;;30.40;56.10;;;;;;6223097;28;20692;-64
2022/06/19 16:15:17;;;;;;;6.17;5.67;;;30.30;56.40;;;;;;6218134;28;20547;-64
2022/06/19 16:18:22;;;;;;;6.20;5.70;;;30.10;56.70;;;;;;6230235;28;20232;-65
2022/06/19 16:21:26;;;;;;;6.10;5.60;;;29.90;56.40;;;;;;6228379;28;20228;-65
2022/06/19 16:24:34;;;;;;;6.10;5.60;;;29.80;57.10;;;;;;6228274;28;20232;-65
2022/06/19 16:27:38;;;;;;;6.53;5.93;;;29.80;56.50;;;;;;6228852;28;20225;-65
2022/06/19 16:30:46;;;;;;;6.40;5.90;;;29.90;56.80;;;;;;6228740;28;20238;-65
2022/06/19 16:33:53;;;;;;;7.97;6.30;;;29.70;57.40;;;;;;6227143;28;20228;-65
2022/06/19 16:44:08;;;;;;;6.23;5.73;;;29.60;56.70;;;;;;6210040;28;20277;-65
2022/06/19 16:47:25;;;;;;;6.77;6.10;;;29.70;57.00;;;;;;6204059;28;20251;-65